Buoy 51940

sailwx.info

Track history (hours):
 
Tides and Currents Weather Stations Pressure Air Temp Water Temp Dewpoint Dewpoint Depression Visibility Wind Speed Wind Dir Waves Ship Positions

Drifting buoy 51940

Last reported at 2015-Apr-01 14:10 UTC. Time now 2015-Apr-01 22:35 UTC.
Position N 31°28' W 157°13'.

Water temperature 16.0 ° C

Date/timePositionNaut miles runAvg speedWind from/ knotsBaromVisibWave heightAir tempDewpointWater temp
2015-Apr-01 14:10N 31°28' W 157°13'138.1 16.0
2015-Apr-01 14:08N 31°26' W 157°13'3 0.5 16.0
2015-Apr-01 08:53N 31°24' W 157°13'2 0.6 17.0
2015-Apr-01 05:00N 31°22' W 157°15'0 0.0 17.5
2015-Apr-01 04:06N 31°22' W 157°15'4 3.7 17.5
2015-Apr-01 03:04N 31°18' W 157°16'0 0.0 17.6
2015-Apr-01 00:05N 31°18' W 157°16'3 0.8 17.6
2015-Mar-31 20:55N 31°16' W 157°16'2 0.4 17.6
2015-Mar-31 16:54N 31°14' W 157°15'0 0.0 17.7
2015-Mar-31 16:41N 31°14' W 157°15'1 0.5 17.7
2015-Mar-31 15:45N 31°14' W 157°15'0 0.5 17.7
2015-Mar-31 15:14N 31°14' W 157°15'3 0.3 17.7
2015-Mar-31 07:33N 31°11' W 157°14'2 0.7 17.7
2015-Mar-31 04:28N 31°10' W 157°12'0 0.0 17.8
2015-Mar-31 03:48N 31°10' W 157°12'1 1.0 17.8
2015-Mar-31 03:15N 31°10' W 157°13'3 0.9 17.8
2015-Mar-31 00:17N 31°07' W 157°11'0 0.0 17.7
2015-Mar-30 20:22N 31°07' W 157°11'2 0.6 17.5
2015-Mar-30 17:14N 31°06' W 157°09'1 0.5 17.5
2015-Mar-30 15:39N 31°06' W 157°08'1 7.1 17.5
2015-Mar-30 15:32N 31°05' W 157°08'0 0.0 17.5
2015-Mar-30 12:56N 31°05' W 157°08'2 0.4 17.5
2015-Mar-30 07:58N 31°06' W 157°05'0 6.2 17.7
2015-Mar-30 07:55N 31°06' W 157°06'0 0.3 17.7
2015-Mar-30 06:18N 31°06' W 157°05'0 0.0 17.7
2015-Mar-30 04:21N 31°06' W 157°05'0 0.2 17.8
2015-Mar-30 03:27N 31°06' W 157°05'0 0.3 17.8
2015-Mar-30 03:16N 31°06' W 157°05'2 1.1 17.8
2015-Mar-30 01:41N 31°06' W 157°03'0 0.0 17.9
2015-Mar-30 00:28N 31°06' W 157°03'0 0.2 17.9
2015-Mar-29 22:45N 31°07' W 157°03'1 0.4 17.9
2015-Mar-29 19:48N 31°08' W 157°04'0 0.0 17.9
2015-Mar-29 18:58N 31°08' W 157°04'0 0.1 17.9
2015-Mar-29 16:03N 31°08' W 157°03'1 0.4 17.8
2015-Mar-29 14:22N 31°08' W 157°03'0 0.0 17.9
2015-Mar-29 13:08N 31°08' W 157°03'2 9.8 17.7
2015-Mar-29 12:58N 31°09' W 157°05'0 0.0
2015-Mar-29 08:18N 31°09' W 157°05'0 3.1 17.7
2015-Mar-29 08:17N 31°09' W 157°05'1 0.9 17.7
2015-Mar-29 07:33N 31°09' W 157°06'3 1.1 17.7
2015-Mar-29 04:54N 31°10' W 157°09'0 0.2 17.7
2015-Mar-29 03:38N 31°10' W 157°08'2 3.7 18.0
2015-Mar-29 03:09N 31°09' W 157°10'0 0.0 18.1
2015-Mar-29 01:55N 31°09' W 157°10'1 0.7 18.1
2015-Mar-29 00:40N 31°09' W 157°11'3 1.6 18.1
2015-Mar-28 22:56N 31°06' W 157°13'0 0.2 18.1
2015-Mar-28 21:03N 31°07' W 157°13'1 1.2 17.9
2015-Mar-28 20:16N 31°06' W 157°13'1 0.7 17.9
2015-Mar-28 19:22N 31°05' W 157°14'127.4 17.9
2015-Mar-28 19:19N 31°04' W 157°14'0 0.0 17.9
2015-Mar-28 16:38N 31°04' W 157°14'0 1.2 18.0
2015-Mar-28 16:17N 31°04' W 157°15'218.8 18.0
2015-Mar-28 16:11N 31°02' W 157°16'0 0.0 18.0
2015-Mar-28 14:55N 31°02' W 157°16'0 0.0 18.0
2015-Mar-28 14:32N 31°02' W 157°16'0 0.0 18.0
2015-Mar-28 13:17N 31°02' W 157°16'3 1.9 17.9
2015-Mar-28 11:33N 30°59' W 157°16'1 0.2 17.8
2015-Mar-28 08:37N 30°58' W 157°16'0 0.0 17.8
2015-Mar-28 07:52N 30°58' W 157°16'1 0.9 17.8
2015-Mar-28 07:01N 30°58' W 157°16'113.2 17.8
2015-Mar-28 06:55N 30°56' W 157°16'1 0.4 17.8
2015-Mar-28 04:03N 30°55' W 157°16'1 5.1 17.8
2015-Mar-28 03:46N 30°54' W 157°16'0 0.2 17.8
2015-Mar-28 02:24N 30°53' W 157°16'0 0.0 17.8
2015-Mar-28 02:08N 30°53' W 157°16'1 1.0 17.8
2015-Mar-28 00:48N 30°52' W 157°15'2 1.3 17.8
2015-Mar-27 23:08N 30°50' W 157°14'0 0.0 17.7
2015-Mar-27 21:23N 30°50' W 157°14'3 3.4 17.7
2015-Mar-27 20:33N 30°48' W 157°13'0 0.0 17.7
2015-Mar-27 19:44N 30°48' W 157°13'0 0.0 17.7
2015-Mar-27 17:08N 30°48' W 157°13'1 2.0 17.7
2015-Mar-27 16:48N 30°47' W 157°13'0 1.2 17.8
2015-Mar-27 16:30N 30°47' W 157°13'1 3.9 17.8
2015-Mar-27 16:18N 30°46' W 157°13'0 0.3
2015-Mar-27 14:45N 30°46' W 157°13'1 0.8 17.9
2015-Mar-27 13:32N 30°45' W 157°12'0 1.6 18.0
2015-Mar-27 13:23N 30°45' W 157°12'1 0.7 18.0
2015-Mar-27 11:48N 30°44' W 157°12'369.0 18.0
2015-Mar-27 11:45N 30°41' W 157°11'0 0.0 18.0
2015-Mar-27 07:18N 30°41' W 157°11'185.6 18.0
2015-Mar-27 07:17N 30°39' W 157°11'1 0.3 18.0
2015-Mar-27 04:30N 30°38' W 157°10'0 1.1 17.7
2015-Mar-27 04:17N 30°38' W 157°10'0 1.5 17.7
2015-Mar-27 03:58N 30°38' W 157°10'1 1.2 17.6
2015-Mar-27 02:49N 30°37' W 157°10'1 1.3 17.5
2015-Mar-27 02:18N 30°36' W 157°10'2 1.6 17.5
2015-Mar-27 01:01N 30°34' W 157°09'2 0.4 17.6
2015-Mar-26 20:51N 30°33' W 157°08'0 0.0
2015-Mar-26 20:03N 30°33' W 157°08'0 0.1 17.4
2015-Mar-26 15:00N 30°33' W 157°09'1 0.2 17.3
2015-Mar-26 11:58N 30°32' W 157°09'1 0.3 17.3
2015-Mar-26 07:41N 30°31' W 157°09'0 0.0 17.3
2015-Mar-26 04:48N 30°31' W 157°09'1 0.4 17.3
2015-Mar-26 03:16N 30°30' W 157°09'2 0.3 17.3
2015-Mar-25 20:26N 30°30' W 157°07'2 0.7 17.2
2015-Mar-25 16:48N 30°31' W 157°09'0 0.0 17.3
2015-Mar-25 16:03N 30°31' W 157°09'1 1.0 17.3
2015-Mar-25 15:08N 30°32' W 157°10'113.1 17.3
2015-Mar-25 15:03N 30°32' W 157°11'1 4.4
2015-Mar-25 14:48N 30°32' W 157°10'1 1.1
2015-Mar-25 13:49N 30°32' W 157°11'0 0.0 17.3
2015-Mar-25 12:14N 30°32' W 157°11'0 2.8 17.3
2015-Mar-25 12:05N 30°32' W 157°12'1 0.4 17.3
2015-Mar-25 08:00N 30°32' W 157°13'0 0.0 17.3
2015-Mar-25 07:13N 30°32' W 157°13'0 0.0 17.4
2015-Mar-25 06:18N 30°32' W 157°13'025.8 17.4
2015-Mar-25 06:17N 30°32' W 157°13'0 0.1 17.4
2015-Mar-25 03:41N 30°32' W 157°13'1 0.9 17.4
2015-Mar-25 02:42N 30°32' W 157°14'0 0.5 17.4
2015-Mar-25 02:00N 30°32' W 157°14'0 0.0
2015-Mar-25 01:24N 30°32' W 157°14'0 0.1 17.4
2015-Mar-24 20:47N 30°32' W 157°14'2 2.3 17.3
2015-Mar-24 19:52N 30°34' W 157°14'0 0.0
2015-Mar-24 17:00N 30°34' W 157°14'1 1.5 17.2
2015-Mar-24 16:18N 30°35' W 157°15'1 0.3 17.2
2015-Mar-24 14:02N 30°34' W 157°16'6 0.6 17.2
2015-Mar-24 04:05N 30°30' W 157°22'4 0.3 17.4
2015-Mar-23 15:12N 30°26' W 157°23'1 0.9 17.1
2015-Mar-23 14:09N 30°26' W 157°24'4 0.5 17.1
2015-Mar-23 06:58N 30°22' W 157°25'0 0.0 16.8
2015-Mar-23 04:43N 30°22' W 157°25'0 0.2 16.8
2015-Mar-23 03:05N 30°22' W 157°25'1 0.2 17.0
2015-Mar-23 00:03N 30°21' W 157°26'2 0.2 16.9
2015-Mar-22 16:25N 30°22' W 157°28'   16.4
Track history (hours):
 
Tides and Currents Weather Stations Pressure Air Temp Water Temp Dewpoint Dewpoint Depression Visibility Wind Speed Wind Dir Waves Ship Positions

Drifting buoy 51940

Last reported at 2015-Apr-01 14:10 UTC. Time now 2015-Apr-01 22:35 UTC.
Position N 31°28' W 157°13'.

Water temperature 16.0 ° C

Date/timePositionNaut miles runAvg speedWind from/ knotsBaromVisibWave heightAir tempDewpointWater temp
2015-Apr-01 14:10N 31°28' W 157°13'138.1 16.0
2015-Apr-01 14:08N 31°26' W 157°13'3 0.5 16.0
2015-Apr-01 08:53N 31°24' W 157°13'2 0.6 17.0
2015-Apr-01 05:00N 31°22' W 157°15'0 0.0 17.5
2015-Apr-01 04:06N 31°22' W 157°15'4 3.7 17.5
2015-Apr-01 03:04N 31°18' W 157°16'0 0.0 17.6
2015-Apr-01 00:05N 31°18' W 157°16'3 0.8 17.6
2015-Mar-31 20:55N 31°16' W 157°16'2 0.4 17.6
2015-Mar-31 16:54N 31°14' W 157°15'0 0.0 17.7
2015-Mar-31 16:41N 31°14' W 157°15'1 0.5 17.7
2015-Mar-31 15:45N 31°14' W 157°15'0 0.5 17.7
2015-Mar-31 15:14N 31°14' W 157°15'3 0.3 17.7
2015-Mar-31 07:33N 31°11' W 157°14'2 0.7 17.7
2015-Mar-31 04:28N 31°10' W 157°12'0 0.0 17.8
2015-Mar-31 03:48N 31°10' W 157°12'1 1.0 17.8
2015-Mar-31 03:15N 31°10' W 157°13'3 0.9 17.8
2015-Mar-31 00:17N 31°07' W 157°11'0 0.0 17.7
2015-Mar-30 20:22N 31°07' W 157°11'2 0.6 17.5
2015-Mar-30 17:14N 31°06' W 157°09'1 0.5 17.5
2015-Mar-30 15:39N 31°06' W 157°08'1 7.1 17.5
2015-Mar-30 15:32N 31°05' W 157°08'0 0.0 17.5
2015-Mar-30 12:56N 31°05' W 157°08'2 0.4 17.5
2015-Mar-30 07:58N 31°06' W 157°05'0 6.2 17.7
2015-Mar-30 07:55N 31°06' W 157°06'0 0.3 17.7
2015-Mar-30 06:18N 31°06' W 157°05'0 0.0 17.7
2015-Mar-30 04:21N 31°06' W 157°05'0 0.2 17.8
2015-Mar-30 03:27N 31°06' W 157°05'0 0.3 17.8
2015-Mar-30 03:16N 31°06' W 157°05'2 1.1 17.8
2015-Mar-30 01:41N 31°06' W 157°03'0 0.0 17.9
2015-Mar-30 00:28N 31°06' W 157°03'0 0.2 17.9
2015-Mar-29 22:45N 31°07' W 157°03'1 0.4 17.9
2015-Mar-29 19:48N 31°08' W 157°04'0 0.0 17.9
2015-Mar-29 18:58N 31°08' W 157°04'0 0.1 17.9
2015-Mar-29 16:03N 31°08' W 157°03'1 0.4 17.8
2015-Mar-29 14:22N 31°08' W 157°03'0 0.0 17.9
2015-Mar-29 13:08N 31°08' W 157°03'2 9.8 17.7
2015-Mar-29 12:58N 31°09' W 157°05'0 0.0
2015-Mar-29 08:18N 31°09' W 157°05'0 3.1 17.7
2015-Mar-29 08:17N 31°09' W 157°05'1 0.9 17.7
2015-Mar-29 07:33N 31°09' W 157°06'3 1.1 17.7
2015-Mar-29 04:54N 31°10' W 157°09'0 0.2 17.7
2015-Mar-29 03:38N 31°10' W 157°08'2 3.7 18.0
2015-Mar-29 03:09N 31°09' W 157°10'0 0.0 18.1
2015-Mar-29 01:55N 31°09' W 157°10'1 0.7 18.1
2015-Mar-29 00:40N 31°09' W 157°11'3 1.6 18.1
2015-Mar-28 22:56N 31°06' W 157°13'0 0.2 18.1
2015-Mar-28 21:03N 31°07' W 157°13'1 1.2 17.9
2015-Mar-28 20:16N 31°06' W 157°13'1 0.7 17.9
2015-Mar-28 19:22N 31°05' W 157°14'127.4 17.9
2015-Mar-28 19:19N 31°04' W 157°14'0 0.0 17.9
2015-Mar-28 16:38N 31°04' W 157°14'0 1.2 18.0
2015-Mar-28 16:17N 31°04' W 157°15'218.8 18.0
2015-Mar-28 16:11N 31°02' W 157°16'0 0.0 18.0
2015-Mar-28 14:55N 31°02' W 157°16'0 0.0 18.0
2015-Mar-28 14:32N 31°02' W 157°16'0 0.0 18.0
2015-Mar-28 13:17N 31°02' W 157°16'3 1.9 17.9
2015-Mar-28 11:33N 30°59' W 157°16'1 0.2 17.8
2015-Mar-28 08:37N 30°58' W 157°16'0 0.0 17.8
2015-Mar-28 07:52N 30°58' W 157°16'1 0.9 17.8
2015-Mar-28 07:01N 30°58' W 157°16'113.2 17.8
2015-Mar-28 06:55N 30°56' W 157°16'1 0.4 17.8
2015-Mar-28 04:03N 30°55' W 157°16'1 5.1 17.8
2015-Mar-28 03:46N 30°54' W 157°16'0 0.2 17.8
2015-Mar-28 02:24N 30°53' W 157°16'0 0.0 17.8
2015-Mar-28 02:08N 30°53' W 157°16'1 1.0 17.8
2015-Mar-28 00:48N 30°52' W 157°15'2 1.3 17.8
2015-Mar-27 23:08N 30°50' W 157°14'0 0.0 17.7
2015-Mar-27 21:23N 30°50' W 157°14'3 3.4 17.7
2015-Mar-27 20:33N 30°48' W 157°13'0 0.0 17.7
2015-Mar-27 19:44N 30°48' W 157°13'0 0.0 17.7
2015-Mar-27 17:08N 30°48' W 157°13'1 2.0 17.7
2015-Mar-27 16:48N 30°47' W 157°13'0 1.2 17.8
2015-Mar-27 16:30N 30°47' W 157°13'1 3.9 17.8
2015-Mar-27 16:18N 30°46' W 157°13'0 0.3
2015-Mar-27 14:45N 30°46' W 157°13'1 0.8 17.9
2015-Mar-27 13:32N 30°45' W 157°12'0 1.6 18.0
2015-Mar-27 13:23N 30°45' W 157°12'1 0.7 18.0
2015-Mar-27 11:48N 30°44' W 157°12'369.0 18.0
2015-Mar-27 11:45N 30°41' W 157°11'0 0.0 18.0
2015-Mar-27 07:18N 30°41' W 157°11'185.6 18.0
2015-Mar-27 07:17N 30°39' W 157°11'1 0.3 18.0
2015-Mar-27 04:30N 30°38' W 157°10'0 1.1 17.7
2015-Mar-27 04:17N 30°38' W 157°10'0 1.5 17.7
2015-Mar-27 03:58N 30°38' W 157°10'1 1.2 17.6
2015-Mar-27 02:49N 30°37' W 157°10'1 1.3 17.5
2015-Mar-27 02:18N 30°36' W 157°10'2 1.6 17.5
2015-Mar-27 01:01N 30°34' W 157°09'2 0.4 17.6
2015-Mar-26 20:51N 30°33' W 157°08'0 0.0
2015-Mar-26 20:03N 30°33' W 157°08'0 0.1 17.4
2015-Mar-26 15:00N 30°33' W 157°09'1 0.2 17.3
2015-Mar-26 11:58N 30°32' W 157°09'1 0.3 17.3
2015-Mar-26 07:41N 30°31' W 157°09'0 0.0 17.3
2015-Mar-26 04:48N 30°31' W 157°09'1 0.4 17.3
2015-Mar-26 03:16N 30°30' W 157°09'2 0.3 17.3
2015-Mar-25 20:26N 30°30' W 157°07'2 0.7 17.2
2015-Mar-25 16:48N 30°31' W 157°09'0 0.0 17.3
2015-Mar-25 16:03N 30°31' W 157°09'1 1.0 17.3
2015-Mar-25 15:08N 30°32' W 157°10'113.1 17.3
2015-Mar-25 15:03N 30°32' W 157°11'1 4.4
2015-Mar-25 14:48N 30°32' W 157°10'1 1.1
2015-Mar-25 13:49N 30°32' W 157°11'0 0.0 17.3
2015-Mar-25 12:14N 30°32' W 157°11'0 2.8 17.3
2015-Mar-25 12:05N 30°32' W 157°12'1 0.4 17.3
2015-Mar-25 08:00N 30°32' W 157°13'0 0.0 17.3
2015-Mar-25 07:13N 30°32' W 157°13'0 0.0 17.4
2015-Mar-25 06:18N 30°32' W 157°13'025.8 17.4
2015-Mar-25 06:17N 30°32' W 157°13'0 0.1 17.4
2015-Mar-25 03:41N 30°32' W 157°13'1 0.9 17.4
2015-Mar-25 02:42N 30°32' W 157°14'0 0.5 17.4
2015-Mar-25 02:00N 30°32' W 157°14'0 0.0
2015-Mar-25 01:24N 30°32' W 157°14'0 0.1 17.4
2015-Mar-24 20:47N 30°32' W 157°14'2 2.3 17.3
2015-Mar-24 19:52N 30°34' W 157°14'0 0.0
2015-Mar-24 17:00N 30°34' W 157°14'1 1.5 17.2
2015-Mar-24 16:18N 30°35' W 157°15'1 0.3 17.2
2015-Mar-24 14:02N 30°34' W 157°16'6 0.6 17.2
2015-Mar-24 04:05N 30°30' W 157°22'4 0.3 17.4
2015-Mar-23 15:12N 30°26' W 157°23'1 0.9 17.1
2015-Mar-23 14:09N 30°26' W 157°24'4 0.5 17.1
2015-Mar-23 06:58N 30°22' W 157°25'0 0.0 16.8
2015-Mar-23 04:43N 30°22' W 157°25'0 0.2 16.8
2015-Mar-23 03:05N 30°22' W 157°25'1 0.2 17.0
2015-Mar-23 00:03N 30°21' W 157°26'2 0.2 16.9
2015-Mar-22 16:25N 30°22' W 157°28'   16.4

Dump ship's entire track history